Polar Sea — WYE7524 — position and weather

sailwx.info

Track history (hours):
 
Tides and Currents Weather Stations Pressure Air Temp Water Temp Dewpoint Dewpoint Depression Visibility Wind Speed Wind Dir Waves Ship Positions

Polar Sea

Owner: WARNESS, VIDAR, SEATTLE, WA. More information available from US FCC via Universal Licensing System and Coast Guard Vessel Documentation Center.

Last reported at 2017-Oct-04 04:53 UTC. Time now 2017-Dec-16 03:34 UTC.
Position N 50°03' W 129°46'.
Warning: this ship's position is months out of date.

Length 31 m; draft 4 m.

Type: Fishing. MMSI: 303457000.

Date/timePositionNaut miles runAvg speedWind from/ knotsBaromVisibWave heightAir tempDewpointWater temp
2017-Oct-04 04:53N 50°03' W 129°46'112 9.6
2017-Oct-03 17:10N 49°13' W 127°10'4 9.4
2017-Oct-03 16:45N 49°11' W 127°05'4 9.5
2017-Oct-03 16:18N 49°09' W 126°59'25 9.4
2017-Oct-03 13:39N 48°57' W 126°25'2 9.4
2017-Oct-03 13:26N 48°56' W 126°23'4 9.6
2017-Oct-03 13:00N 48°54' W 126°17'5 9.8
2017-Oct-03 12:30N 48°52' W 126°10'5 9.9
2017-Oct-03 12:00N 48°50' W 126°04'510.2
2017-Oct-03 11:30N 48°47' W 125°57'510.1
2017-Oct-03 11:00N 48°45' W 125°50'510.4
2017-Oct-03 10:30N 48°43' W 125°43'510.2
2017-Oct-03 10:00N 48°40' W 125°36'510.0
2017-Oct-03 09:30N 48°38' W 125°30'5 9.8
2017-Oct-03 09:00N 48°35' W 125°23'5 9.7
2017-Oct-03 08:30N 48°33' W 125°17'9 9.4
2017-Oct-03 07:31N 48°31' W 125°03'4 9.1
2017-Oct-03 07:02N 48°31' W 124°57'1 9.2
2017-Oct-03 06:56N 48°31' W 124°55'4 9.4
2017-Oct-03 06:30N 48°31' W 124°49'5 9.8
2017-Oct-03 06:00N 48°30' W 124°42'510.1
2017-Oct-03 05:30N 48°28' W 124°35'5 9.9
2017-Oct-03 05:00N 48°26' W 124°28'510.4
2017-Oct-03 04:30N 48°24' W 124°21'510.5
2017-Oct-03 04:00N 48°22' W 124°13'510.6
2017-Oct-03 03:30N 48°20' W 124°06'1310.5
2017-Oct-03 02:16N 48°17' W 123°47'611.0
2017-Oct-03 01:43N 48°16' W 123°38'312.1
2017-Oct-03 01:30N 48°16' W 123°34'510.6
2017-Oct-03 01:01N 48°15' W 123°26'510.2
2017-Oct-03 00:29N 48°14' W 123°19'510.2
2017-Oct-03 00:00N 48°13' W 123°11'610.1
2017-Oct-02 23:25N 48°13' W 123°02'6 9.3
2017-Oct-02 22:44N 48°12' W 122°53'12 6.8
2017-Oct-02 21:01N 48°06' W 122°38'1 5.6
2017-Oct-02 20:47N 48°04' W 122°38'2 6.9
2017-Oct-02 20:29N 48°02' W 122°37'3 6.0
2017-Oct-02 19:57N 47°59' W 122°35'3 5.9
2017-Oct-02 19:30N 47°57' W 122°33'3 6.8
2017-Oct-02 18:59N 47°55' W 122°29'4 8.4
2017-Oct-02 18:31N 47°51' W 122°27'4 8.7
2017-Oct-02 18:00N 47°47' W 122°26'5 9.3
2017-Oct-02 17:30N 47°42' W 122°25'3 5.1
2017-Oct-02 17:00N 47°40' W 122°24'0 0.4
2017-Oct-02 16:30N 47°40' W 122°23'1 2.1
2017-Oct-02 16:00N 47°39' W 122°22'0 0.0
2017-Oct-02 15:30N 47°39' W 122°22'0 0.0
2017-Oct-02 15:00N 47°39' W 122°22'0 0.0
2017-Oct-02 14:30N 47°39' W 122°22'0 0.0
2017-Oct-02 14:00N 47°39' W 122°22'0 0.0
2017-Oct-02 13:30N 47°39' W 122°22'0 0.0
2017-Oct-02 13:00N 47°39' W 122°22'0 0.0
2017-Oct-02 12:30N 47°39' W 122°22'0 0.0
2017-Oct-02 11:59N 47°39' W 122°22'0 0.0
2017-Oct-02 11:29N 47°39' W 122°22'0 0.0
2017-Oct-02 11:00N 47°39' W 122°22'0 0.0
2017-Oct-02 10:29N 47°39' W 122°22'0 0.0
2017-Oct-02 10:00N 47°39' W 122°22'0 0.0
2017-Oct-02 09:29N 47°39' W 122°22'0 0.0
2017-Oct-02 09:00N 47°39' W 122°22'0 0.0
2017-Oct-02 08:29N 47°39' W 122°22'0 0.0
2017-Oct-02 08:00N 47°39' W 122°22'0 0.0
2017-Oct-02 07:30N 47°39' W 122°22'0 0.0
2017-Oct-02 07:00N 47°39' W 122°22'0 0.0
2017-Oct-02 06:30N 47°39' W 122°22'0 0.0
2017-Oct-02 06:00N 47°39' W 122°22'0 0.0
2017-Oct-02 05:30N 47°39' W 122°22'0 0.0
2017-Oct-02 05:00N 47°39' W 122°22'0 0.0
2017-Oct-02 04:30N 47°39' W 122°22'0 0.0
2017-Oct-02 04:00N 47°39' W 122°22'0 0.0
2017-Oct-02 03:30N 47°39' W 122°22'0 0.0
2017-Oct-02 03:00N 47°39' W 122°22'0 0.0
2017-Oct-02 02:30N 47°39' W 122°22'0 0.0
2017-Oct-02 02:00N 47°39' W 122°22'0 0.0
2017-Oct-02 01:30N 47°39' W 122°22'0 0.0
2017-Oct-02 01:00N 47°39' W 122°22'0 0.0
2017-Oct-02 00:30N 47°39' W 122°22'0 0.0
2017-Oct-02 00:00N 47°39' W 122°22'0 0.0
2017-Oct-01 23:30N 47°39' W 122°22'0 0.0
2017-Oct-01 23:00N 47°39' W 122°22'0 0.0
2017-Oct-01 22:30N 47°39' W 122°22'0 0.0
2017-Oct-01 22:00N 47°39' W 122°22'0 0.0
2017-Oct-01 21:30N 47°39' W 122°22'0 0.0
2017-Oct-01 21:00N 47°39' W 122°22'0 0.0
2017-Oct-01 20:29N 47°39' W 122°22'0 0.0
2017-Oct-01 20:00N 47°39' W 122°22'0 0.0
2017-Oct-01 19:30N 47°39' W 122°22'0 0.0
2017-Oct-01 19:00N 47°39' W 122°22'0 0.0
2017-Oct-01 18:30N 47°39' W 122°22'0 0.0
2017-Oct-01 18:00N 47°39' W 122°22'0 0.0
2017-Oct-01 17:31N 47°39' W 122°22'0 0.0
2017-Oct-01 17:00N 47°39' W 122°22'0 0.0
2017-Oct-01 16:31N 47°39' W 122°22'0 0.0
2017-Oct-01 16:00N 47°39' W 122°22'0 0.0
2017-Oct-01 15:30N 47°39' W 122°22'0 0.0
2017-Oct-01 15:01N 47°39' W 122°22'0 0.0
2017-Oct-01 14:31N 47°39' W 122°22'0 0.0
2017-Oct-01 14:01N 47°39' W 122°22'0 0.0
2017-Oct-01 13:31N 47°39' W 122°22'0 0.0
2017-Oct-01 13:01N 47°39' W 122°22'0 0.0
2017-Oct-01 12:31N 47°39' W 122°22'0 0.0
2017-Oct-01 12:01N 47°39' W 122°22'0 0.0
2017-Oct-01 11:30N 47°39' W 122°22'0 0.0
2017-Oct-01 11:01N 47°39' W 122°22'0 0.0
2017-Oct-01 10:30N 47°39' W 122°22'0 0.0
2017-Oct-01 10:01N 47°39' W 122°22'0 0.0
2017-Oct-01 09:31N 47°39' W 122°22'0 0.0
2017-Oct-01 09:01N 47°39' W 122°22'0 0.0
2017-Oct-01 08:31N 47°39' W 122°22'0 0.0
2017-Oct-01 08:01N 47°39' W 122°22'0 0.0
2017-Oct-01 07:30N 47°39' W 122°22'0 0.0
2017-Oct-01 07:01N 47°39' W 122°22'0 0.0
2017-Oct-01 06:31N 47°39' W 122°22'0 0.0
2017-Oct-01 06:01N 47°39' W 122°22'0 0.0
2017-Oct-01 05:31N 47°39' W 122°22'0 0.0
2017-Oct-01 05:01N 47°39' W 122°22'0 0.0
2017-Oct-01 04:30N 47°39' W 122°22'0 0.0
2017-Oct-01 04:01N 47°39' W 122°22'0 0.0
2017-Oct-01 03:31N 47°39' W 122°22'0 0.0
2017-Oct-01 03:01N 47°39' W 122°22'0 0.0
2017-Sep-30 02:01N 47°39' W 122°22'0 0.0
2017-Sep-30 01:31N 47°39' W 122°22'0 0.0
2017-Sep-30 01:01N 47°39' W 122°22'0 0.0
2017-Sep-30 00:31N 47°39' W 122°22'0 0.0
2017-Sep-30 00:01N 47°39' W 122°22'0 0.0
2017-Sep-29 23:30N 47°39' W 122°22'0 0.0
2017-Sep-29 23:00N 47°39' W 122°22'0 0.0
2017-Sep-29 22:31N 47°39' W 122°22'0 0.0
2017-Sep-29 22:01N 47°39' W 122°22'0 0.0
2017-Sep-29 21:31N 47°39' W 122°22'0 0.0
2017-Sep-29 21:01N 47°39' W 122°22'0 0.0
2017-Sep-29 20:31N 47°39' W 122°22'0 0.0
2017-Sep-29 20:01N 47°39' W 122°22'0 0.0
2017-Sep-29 19:30N 47°39' W 122°22'0 0.0
2017-Sep-29 19:01N 47°39' W 122°22'0 0.0
2017-Sep-29 18:31N 47°39' W 122°22'0 0.0
2017-Sep-29 18:01N 47°39' W 122°22'0 0.0
2017-Sep-29 17:30N 47°39' W 122°22'0 0.0
2017-Sep-29 17:01N 47°39' W 122°22'0 0.0
2017-Sep-29 16:31N 47°39' W 122°22'0 0.0
2017-Sep-29 16:01N 47°39' W 122°22'0 0.0
2017-Sep-29 15:30N 47°39' W 122°22'0 0.0
2017-Sep-29 15:00N 47°39' W 122°22'0 0.0
2017-Sep-29 14:31N 47°39' W 122°22'0 0.0
2017-Sep-29 14:01N 47°39' W 122°22'0 0.0
2017-Sep-29 13:31N 47°39' W 122°22'0 0.0
2017-Sep-29 13:00N 47°39' W 122°22'0 0.0
2017-Sep-29 12:31N 47°39' W 122°22'0 0.0
2017-Sep-29 12:01N 47°39' W 122°22'0 0.0
2017-Sep-29 11:30N 47°39' W 122°22'0 0.0
2017-Sep-29 11:00N 47°39' W 122°22'0 0.0
2017-Sep-29 10:31N 47°39' W 122°22'0 0.0
2017-Sep-29 10:01N 47°39' W 122°22'0 0.0
2017-Sep-29 09:31N 47°39' W 122°22'0 0.0
2017-Sep-29 09:00N 47°39' W 122°22'0 0.0
2017-Sep-29 08:31N 47°39' W 122°22'0 0.0
2017-Sep-29 08:01N 47°39' W 122°22'0 0.0
2017-Sep-29 07:31N 47°39' W 122°22'0 0.0
2017-Sep-29 07:01N 47°39' W 122°22'0 0.0
2017-Sep-29 06:31N 47°39' W 122°22'0 0.0
2017-Sep-29 06:00N 47°39' W 122°22'0 0.0
2017-Sep-29 05:30N 47°39' W 122°22'0 0.0
2017-Sep-29 05:00N 47°39' W 122°22'0 0.0
2017-Sep-29 04:31N 47°39' W 122°22'0 0.0
2017-Sep-29 04:01N 47°39' W 122°22'0 0.0
2017-Sep-29 03:30N 47°39' W 122°22'0 0.0
2017-Sep-29 03:01N 47°39' W 122°22'0 0.0
2017-Sep-29 02:30N 47°39' W 122°22'0 0.0
2017-Sep-29 02:01N 47°39' W 122°22'0 0.0
2017-Sep-29 01:31N 47°39' W 122°22'0 0.0
2017-Sep-29 01:00N 47°39' W 122°22'0 0.0
2017-Sep-29 00:31N 47°39' W 122°22'0 0.0
2017-Sep-29 00:01N 47°39' W 122°22'0 0.0
2017-Sep-28 23:31N 47°39' W 122°22'0 0.0
2017-Sep-28 23:01N 47°39' W 122°22'0 0.0
2017-Sep-28 22:31N 47°39' W 122°22'0 0.0
2017-Sep-28 22:01N 47°39' W 122°22'0 0.0
2017-Sep-28 21:31N 47°39' W 122°22'0 0.0
2017-Sep-28 21:00N 47°39' W 122°22'0 0.0
2017-Sep-28 20:30N 47°39' W 122°22'0 0.0
2017-Sep-28 20:01N 47°39' W 122°22'0 0.0
2017-Sep-28 19:30N 47°39' W 122°22'0 0.0
2017-Sep-28 19:01N 47°39' W 122°22'0 0.0
2017-Sep-28 18:31N 47°39' W 122°22'0 0.0
2017-Sep-28 18:01N 47°39' W 122°22'0 0.0
2017-Sep-28 17:31N 47°39' W 122°22'0 0.0
2017-Sep-28 17:00N 47°39' W 122°22'0 0.0
2017-Sep-28 16:31N 47°39' W 122°22'0 0.0
2017-Sep-28 16:01N 47°39' W 122°22'0 0.0
2017-Sep-28 15:31N 47°39' W 122°22'0 0.0
2017-Sep-28 15:01N 47°39' W 122°22'0 0.0
2017-Sep-28 14:30N 47°39' W 122°22'0 0.0
2017-Sep-28 14:01N 47°39' W 122°22'0 0.0
2017-Sep-28 13:31N 47°39' W 122°22'0 0.0
2017-Sep-28 13:00N 47°39' W 122°22'0 0.0
2017-Sep-28 12:31N 47°39' W 122°22'0 0.0
2017-Sep-28 12:01N 47°39' W 122°22'0 0.0
2017-Sep-28 11:30N 47°39' W 122°22'0 0.0
2017-Sep-28 11:01N 47°39' W 122°22'0 0.0
2017-Sep-28 10:30N 47°39' W 122°22'0 0.0
2017-Sep-28 10:01N 47°39' W 122°22'0 0.0
2017-Sep-28 09:31N 47°39' W 122°22'0 0.0
2017-Sep-28 09:01N 47°39' W 122°22'0 0.0
2017-Sep-28 08:31N 47°39' W 122°22'0 0.0
2017-Sep-28 08:01N 47°39' W 122°22'0 0.0
2017-Sep-28 07:31N 47°39' W 122°22'0 0.0
2017-Sep-28 07:01N 47°39' W 122°22'0 0.0
2017-Sep-28 06:31N 47°39' W 122°22'0 0.0
2017-Sep-28 06:01N 47°39' W 122°22'0 0.0
2017-Sep-28 05:30N 47°39' W 122°22'0 0.0
2017-Sep-28 05:00N 47°39' W 122°22'0 0.0
2017-Sep-28 04:31N 47°39' W 122°22'0 0.0
2017-Sep-28 04:01N 47°39' W 122°22'0 0.0
2017-Sep-28 03:31N 47°39' W 122°22'0 0.0
2017-Sep-28 03:01N 47°39' W 122°22'0 0.0
2017-Sep-28 02:31N 47°39' W 122°22'0 0.0
2017-Sep-28 02:01N 47°39' W 122°22'0 0.0
2017-Sep-28 01:31N 47°39' W 122°22'0 0.0
2017-Sep-28 01:00N 47°39' W 122°22'0 0.0
2017-Sep-28 00:31N 47°39' W 122°22'0 0.0
2017-Sep-28 00:01N 47°39' W 122°22'0 0.0
2017-Sep-27 23:31N 47°39' W 122°22'0 0.0
2017-Sep-27 23:00N 47°39' W 122°22'0 0.0
2017-Sep-27 22:31N 47°39' W 122°22'0 0.0
2017-Sep-27 22:00N 47°39' W 122°22'0 0.0
2017-Sep-27 21:31N 47°39' W 122°22'0 0.0
2017-Sep-27 21:01N 47°39' W 122°22'0 0.0
2017-Sep-27 20:31N 47°39' W 122°22'0 0.0
2017-Sep-27 20:00N 47°39' W 122°22'0 0.0
2017-Sep-27 19:31N 47°39' W 122°22'0 0.0
2017-Sep-27 19:01N 47°39' W 122°22'0 0.0
2017-Sep-27 18:30N 47°39' W 122°22'0 0.0
2017-Sep-27 18:00N 47°39' W 122°22'0 0.0
2017-Sep-27 17:30N 47°39' W 122°22'0 0.0
2017-Sep-27 17:01N 47°39' W 122°22'0 0.0
2017-Sep-27 16:30N 47°39' W 122°22'0 0.0
2017-Sep-27 16:01N 47°39' W 122°22'0 0.0
2017-Sep-27 15:31N 47°39' W 122°22'0 0.0
2017-Sep-27 15:00N 47°39' W 122°22'0 0.0
2017-Sep-27 14:31N 47°39' W 122°22'0 0.0
2017-Sep-27 14:01N 47°39' W 122°22'0 0.0
2017-Sep-27 13:30N 47°39' W 122°22'0 0.0
2017-Sep-27 13:01N 47°39' W 122°22'0 0.0
2017-Sep-27 12:31N 47°39' W 122°22'0 0.0
2017-Sep-27 12:00N 47°39' W 122°22'0 0.0
2017-Sep-27 11:31N 47°39' W 122°22'0 0.0
2017-Sep-27 11:01N 47°39' W 122°22'0 0.0
2017-Sep-27 10:31N 47°39' W 122°22'0 0.0
2017-Sep-27 10:01N 47°39' W 122°22'0 0.0
2017-Sep-27 09:30N 47°39' W 122°22'0 0.0
2017-Sep-27 09:00N 47°39' W 122°22'0 0.0
2017-Sep-27 08:31N 47°39' W 122°22'0 0.0
2017-Sep-27 08:01N 47°39' W 122°22'0 0.0
2017-Sep-27 07:31N 47°39' W 122°22'0 0.0
2017-Sep-27 07:01N 47°39' W 122°22'0 0.0
2017-Sep-27 06:31N 47°39' W 122°22'0 0.0
2017-Sep-27 06:01N 47°39' W 122°22'0 0.0
2017-Sep-27 05:30N 47°39' W 122°22'0 0.0
2017-Sep-27 05:01N 47°39' W 122°22'0 0.0
2017-Sep-27 04:30N 47°39' W 122°22'0 0.0
2017-Sep-27 04:01N 47°39' W 122°22'0 0.0
2017-Sep-27 03:30N 47°39' W 122°22'0 0.0
2017-Sep-27 03:00N 47°39' W 122°22'0 0.0
2017-Sep-27 02:30N 47°39' W 122°22'0 0.0
2017-Sep-27 02:00N 47°39' W 122°22'0 0.0
2017-Sep-27 01:31N 47°39' W 122°22'0 0.0
2017-Sep-27 01:00N 47°39' W 122°22'0 0.0
2017-Sep-27 00:31N 47°39' W 122°22'0 0.0
2017-Sep-27 00:01N 47°39' W 122°22'0 0.0
2017-Sep-26 23:30N 47°39' W 122°22'0 0.0
2017-Sep-26 23:00N 47°39' W 122°22'0 0.0
2017-Sep-26 22:30N 47°39' W 122°22'0 0.0
2017-Sep-26 22:01N 47°39' W 122°22'0 0.0
2017-Sep-26 21:30N 47°39' W 122°22'0 0.0
2017-Sep-26 21:00N 47°39' W 122°22'0 0.0
2017-Sep-26 20:30N 47°39' W 122°22'0 0.0
2017-Sep-26 20:00N 47°39' W 122°22'0 0.0
2017-Sep-26 19:29N 47°39' W 122°22'0 0.0
2017-Sep-26 19:00N 47°39' W 122°22'0 0.0
2017-Sep-26 18:30N 47°39' W 122°22'0 0.0
2017-Sep-26 17:59N 47°39' W 122°22'0 0.0
2017-Sep-26 17:30N 47°39' W 122°22'0 0.0
2017-Sep-26 17:01N 47°39' W 122°22'0 0.0
2017-Sep-26 16:30N 47°39' W 122°22'0 0.0
2017-Sep-26 16:00N 47°39' W 122°22'0 0.0
2017-Sep-26 15:30N 47°39' W 122°22'0 0.0
2017-Sep-26 15:00N 47°39' W 122°22'0 0.0
2017-Sep-26 14:30N 47°39' W 122°22'0 0.0
2017-Sep-26 14:00N 47°39' W 122°22'0 0.0
2017-Sep-26 13:30N 47°39' W 122°22'0 0.0
2017-Sep-26 13:00N 47°39' W 122°22'0 0.0
2017-Sep-26 12:30N 47°39' W 122°22'0 0.0
2017-Sep-26 12:01N 47°39' W 122°22'0 0.0
2017-Sep-26 11:30N 47°39' W 122°22'0 0.0
2017-Sep-26 11:01N 47°39' W 122°22'0 0.0
2017-Sep-26 10:30N 47°39' W 122°22'0 0.0
2017-Sep-26 10:01N 47°39' W 122°22'0 0.0
2017-Sep-26 09:30N 47°39' W 122°22'0 0.0
2017-Sep-26 09:00N 47°39' W 122°22'0 0.0
2017-Sep-26 08:30N 47°39' W 122°22'0 0.0
2017-Sep-26 08:00N 47°39' W 122°22'0 0.0
2017-Sep-26 07:30N 47°39' W 122°22'0 0.0
2017-Sep-26 07:00N 47°39' W 122°22'0 0.0
2017-Sep-26 06:30N 47°39' W 122°22'0 0.0
2017-Sep-26 06:01N 47°39' W 122°22'0 0.0
2017-Sep-26 05:31N 47°39' W 122°22'0 0.0
2017-Sep-26 05:00N 47°39' W 122°22'0 0.0
2017-Sep-26 04:31N 47°39' W 122°22'0 0.0
2017-Sep-26 04:00N 47°39' W 122°22'0 0.0
2017-Sep-26 03:31N 47°39' W 122°22'0 0.0
2017-Sep-26 03:00N 47°39' W 122°22'0 0.0
2017-Sep-26 02:30N 47°39' W 122°22'0 0.0
2017-Sep-26 02:00N 47°39' W 122°22'0 0.0
2017-Sep-26 01:31N 47°39' W 122°22'0 0.0
2017-Sep-26 01:00N 47°39' W 122°22'0 0.0
2017-Sep-26 00:31N 47°39' W 122°22'0 0.0
2017-Sep-26 00:00N 47°39' W 122°22'0 0.0
2017-Sep-25 23:30N 47°39' W 122°22'0 0.0
2017-Sep-25 23:01N 47°39' W 122°22'0 0.0
2017-Sep-25 22:31N 47°39' W 122°22'0 0.0
2017-Sep-25 22:00N 47°39' W 122°22'0 0.0
2017-Sep-25 21:30N 47°39' W 122°22'0 0.0
2017-Sep-25 21:00N 47°39' W 122°22'0 0.0
2017-Sep-25 20:31N 47°39' W 122°22'0 0.0
2017-Sep-25 20:01N 47°39' W 122°22'0 0.0
2017-Sep-25 19:30N 47°39' W 122°22'0 0.0
2017-Sep-25 19:01N 47°39' W 122°22'0 0.0
2017-Sep-25 18:30N 47°39' W 122°22'0 0.0
2017-Sep-25 18:00N 47°39' W 122°22'0 0.0
2017-Sep-25 17:30N 47°39' W 122°22'0 0.0
2017-Sep-25 17:00N 47°39' W 122°22'0 0.0
2017-Sep-25 16:30N 47°39' W 122°22'0 0.0
2017-Sep-25 16:00N 47°39' W 122°22'0 0.0
2017-Sep-25 15:30N 47°39' W 122°22'0 0.0
2017-Sep-25 15:00N 47°39' W 122°22'0 0.0
2017-Sep-25 14:30N 47°39' W 122°22'0 0.0
2017-Sep-25 14:00N 47°39' W 122°22'0 0.0
2017-Sep-25 13:31N 47°39' W 122°22'0 0.0
2017-Sep-25 13:01N 47°39' W 122°22'0 0.0
2017-Sep-25 12:31N 47°39' W 122°22'0 0.0
2017-Sep-25 12:00N 47°39' W 122°22'0 0.0
2017-Sep-25 11:31N 47°39' W 122°22'0 0.0
2017-Sep-25 11:00N 47°39' W 122°22'0 0.0
2017-Sep-25 10:31N 47°39' W 122°22'0 0.0
2017-Sep-25 10:00N 47°39' W 122°22'0 0.0
2017-Sep-25 09:30N 47°39' W 122°22'0 0.0
2017-Sep-25 09:01N 47°39' W 122°22'0 0.0
2017-Sep-25 08:31N 47°39' W 122°22'0 0.0
2017-Sep-25 08:00N 47°39' W 122°22'0 0.0
2017-Sep-25 07:31N 47°39' W 122°22'0 0.0
2017-Sep-25 07:01N 47°39' W 122°22'0 0.0
2017-Sep-25 06:31N 47°39' W 122°22'0 0.0
2017-Sep-25 06:00N 47°39' W 122°22'0 0.0
2017-Sep-25 05:31N 47°39' W 122°22'0 0.0
2017-Sep-25 05:01N 47°39' W 122°22'0 0.0
2017-Sep-25 04:31N 47°39' W 122°22'0 0.0
2017-Sep-25 04:01N 47°39' W 122°22'0 0.0
2017-Sep-25 03:30N 47°39' W 122°22'0 0.0
2017-Sep-25 03:01N 47°39' W 122°22'0 0.0
2017-Sep-25 02:31N 47°39' W 122°22'0 0.0
2017-Sep-25 02:01N 47°39' W 122°22'0 0.0
2017-Sep-25 01:31N 47°39' W 122°22'0 0.0
2017-Sep-25 01:00N 47°39' W 122°22'0 0.0
2017-Sep-25 00:30N 47°39' W 122°22'0 0.0
2017-Sep-25 00:00N 47°39' W 122°22'0 0.0
2017-Sep-24 23:30N 47°39' W 122°22'0 0.0
2017-Sep-24 23:01N 47°39' W 122°22'0 0.0
2017-Sep-24 22:30N 47°39' W 122°22'0 0.0
2017-Sep-24 22:00N 47°39' W 122°22'0 0.0
2017-Sep-24 21:31N 47°39' W 122°22'0 0.0
2017-Sep-24 21:01N 47°39' W 122°22'0 0.0
2017-Sep-24 20:30N 47°39' W 122°22'0 0.0
2017-Sep-24 20:00N 47°39' W 122°22'0 0.0
2017-Sep-24 19:30N 47°39' W 122°22'0 0.0
2017-Sep-24 19:00N 47°39' W 122°22'0 0.0
2017-Sep-24 18:31N 47°39' W 122°22'0 0.0
2017-Sep-24 18:01N 47°39' W 122°22'0 0.0
2017-Sep-24 17:31N 47°39' W 122°22'0 0.0
2017-Sep-24 17:00N 47°39' W 122°22'0 0.0
2017-Sep-24 16:31N 47°39' W 122°22'0 0.0
2017-Sep-24 16:01N 47°39' W 122°22'0 0.0
2017-Sep-24 15:30N 47°39' W 122°22'0 0.0
2017-Sep-24 15:00N 47°39' W 122°22'0 0.0
2017-Sep-24 14:31N 47°39' W 122°22'0 0.0
2017-Sep-24 14:01N 47°39' W 122°22'0 0.0
2017-Sep-24 13:31N 47°39' W 122°22'0 0.0
2017-Sep-24 13:01N 47°39' W 122°22'0 0.0
2017-Sep-24 12:31N 47°39' W 122°22'0 0.0
2017-Sep-24 12:00N 47°39' W 122°22'0 0.0
2017-Sep-24 11:30N 47°39' W 122°22'0 0.0
2017-Sep-24 11:01N 47°39' W 122°22'0 0.0
2017-Sep-24 10:30N 47°39' W 122°22'0 0.0
2017-Sep-24 10:01N 47°39' W 122°22'0 0.0
2017-Sep-24 09:30N 47°39' W 122°22'0 0.0
2017-Sep-24 09:00N 47°39' W 122°22'0 0.0
2017-Sep-24 08:31N 47°39' W 122°22'0 0.0
2017-Sep-24 08:01N 47°39' W 122°22'0 0.0
2017-Sep-24 07:31N 47°39' W 122°22'0 0.0
2017-Sep-24 07:00N 47°39' W 122°22'0 0.0
2017-Sep-24 06:31N 47°39' W 122°22'0 0.0
2017-Sep-24 06:00N 47°39' W 122°22'0 0.0
2017-Sep-24 05:31N 47°39' W 122°22'0 0.0
2017-Sep-24 05:00N 47°39' W 122°22'  
Track history (hours):
 
Tides and Currents Weather Stations Pressure Air Temp Water Temp Dewpoint Dewpoint Depression Visibility Wind Speed Wind Dir Waves Ship Positions

Polar Sea

Owner: WARNESS, VIDAR, SEATTLE, WA. More information available from US FCC via Universal Licensing System and Coast Guard Vessel Documentation Center.

Last reported at 2017-Oct-04 04:53 UTC. Time now 2017-Dec-16 03:34 UTC.
Position N 50°03' W 129°46'.
Warning: this ship's position is months out of date.

Length 31 m; draft 4 m.

Type: Fishing. MMSI: 303457000.

Date/timePositionNaut miles runAvg speedWind from/ knotsBaromVisibWave heightAir tempDewpointWater temp
2017-Oct-04 04:53N 50°03' W 129°46'112 9.6
2017-Oct-03 17:10N 49°13' W 127°10'4 9.4
2017-Oct-03 16:45N 49°11' W 127°05'4 9.5
2017-Oct-03 16:18N 49°09' W 126°59'25 9.4
2017-Oct-03 13:39N 48°57' W 126°25'2 9.4
2017-Oct-03 13:26N 48°56' W 126°23'4 9.6
2017-Oct-03 13:00N 48°54' W 126°17'5 9.8
2017-Oct-03 12:30N 48°52' W 126°10'5 9.9
2017-Oct-03 12:00N 48°50' W 126°04'510.2
2017-Oct-03 11:30N 48°47' W 125°57'510.1
2017-Oct-03 11:00N 48°45' W 125°50'510.4
2017-Oct-03 10:30N 48°43' W 125°43'510.2
2017-Oct-03 10:00N 48°40' W 125°36'510.0
2017-Oct-03 09:30N 48°38' W 125°30'5 9.8
2017-Oct-03 09:00N 48°35' W 125°23'5 9.7
2017-Oct-03 08:30N 48°33' W 125°17'9 9.4
2017-Oct-03 07:31N 48°31' W 125°03'4 9.1
2017-Oct-03 07:02N 48°31' W 124°57'1 9.2
2017-Oct-03 06:56N 48°31' W 124°55'4 9.4
2017-Oct-03 06:30N 48°31' W 124°49'5 9.8
2017-Oct-03 06:00N 48°30' W 124°42'510.1
2017-Oct-03 05:30N 48°28' W 124°35'5 9.9
2017-Oct-03 05:00N 48°26' W 124°28'510.4
2017-Oct-03 04:30N 48°24' W 124°21'510.5
2017-Oct-03 04:00N 48°22' W 124°13'510.6
2017-Oct-03 03:30N 48°20' W 124°06'1310.5
2017-Oct-03 02:16N 48°17' W 123°47'611.0
2017-Oct-03 01:43N 48°16' W 123°38'312.1
2017-Oct-03 01:30N 48°16' W 123°34'510.6
2017-Oct-03 01:01N 48°15' W 123°26'510.2
2017-Oct-03 00:29N 48°14' W 123°19'510.2
2017-Oct-03 00:00N 48°13' W 123°11'610.1
2017-Oct-02 23:25N 48°13' W 123°02'6 9.3
2017-Oct-02 22:44N 48°12' W 122°53'12 6.8
2017-Oct-02 21:01N 48°06' W 122°38'1 5.6
2017-Oct-02 20:47N 48°04' W 122°38'2 6.9
2017-Oct-02 20:29N 48°02' W 122°37'3 6.0
2017-Oct-02 19:57N 47°59' W 122°35'3 5.9
2017-Oct-02 19:30N 47°57' W 122°33'3 6.8
2017-Oct-02 18:59N 47°55' W 122°29'4 8.4
2017-Oct-02 18:31N 47°51' W 122°27'4 8.7
2017-Oct-02 18:00N 47°47' W 122°26'5 9.3
2017-Oct-02 17:30N 47°42' W 122°25'3 5.1
2017-Oct-02 17:00N 47°40' W 122°24'0 0.4
2017-Oct-02 16:30N 47°40' W 122°23'1 2.1
2017-Oct-02 16:00N 47°39' W 122°22'0 0.0
2017-Oct-02 15:30N 47°39' W 122°22'0 0.0
2017-Oct-02 15:00N 47°39' W 122°22'0 0.0
2017-Oct-02 14:30N 47°39' W 122°22'0 0.0
2017-Oct-02 14:00N 47°39' W 122°22'0 0.0
2017-Oct-02 13:30N 47°39' W 122°22'0 0.0
2017-Oct-02 13:00N 47°39' W 122°22'0 0.0
2017-Oct-02 12:30N 47°39' W 122°22'0 0.0
2017-Oct-02 11:59N 47°39' W 122°22'0 0.0
2017-Oct-02 11:29N 47°39' W 122°22'0 0.0
2017-Oct-02 11:00N 47°39' W 122°22'0 0.0
2017-Oct-02 10:29N 47°39' W 122°22'0 0.0
2017-Oct-02 10:00N 47°39' W 122°22'0 0.0
2017-Oct-02 09:29N 47°39' W 122°22'0 0.0
2017-Oct-02 09:00N 47°39' W 122°22'0 0.0
2017-Oct-02 08:29N 47°39' W 122°22'0 0.0
2017-Oct-02 08:00N 47°39' W 122°22'0 0.0
2017-Oct-02 07:30N 47°39' W 122°22'0 0.0
2017-Oct-02 07:00N 47°39' W 122°22'0 0.0
2017-Oct-02 06:30N 47°39' W 122°22'0 0.0
2017-Oct-02 06:00N 47°39' W 122°22'0 0.0
2017-Oct-02 05:30N 47°39' W 122°22'0 0.0
2017-Oct-02 05:00N 47°39' W 122°22'0 0.0
2017-Oct-02 04:30N 47°39' W 122°22'0 0.0
2017-Oct-02 04:00N 47°39' W 122°22'0 0.0
2017-Oct-02 03:30N 47°39' W 122°22'0 0.0
2017-Oct-02 03:00N 47°39' W 122°22'0 0.0
2017-Oct-02 02:30N 47°39' W 122°22'0 0.0
2017-Oct-02 02:00N 47°39' W 122°22'0 0.0
2017-Oct-02 01:30N 47°39' W 122°22'0 0.0
2017-Oct-02 01:00N 47°39' W 122°22'0 0.0
2017-Oct-02 00:30N 47°39' W 122°22'0 0.0
2017-Oct-02 00:00N 47°39' W 122°22'0 0.0
2017-Oct-01 23:30N 47°39' W 122°22'0 0.0
2017-Oct-01 23:00N 47°39' W 122°22'0 0.0
2017-Oct-01 22:30N 47°39' W 122°22'0 0.0
2017-Oct-01 22:00N 47°39' W 122°22'0 0.0
2017-Oct-01 21:30N 47°39' W 122°22'0 0.0
2017-Oct-01 21:00N 47°39' W 122°22'0 0.0
2017-Oct-01 20:29N 47°39' W 122°22'0 0.0
2017-Oct-01 20:00N 47°39' W 122°22'0 0.0
2017-Oct-01 19:30N 47°39' W 122°22'0 0.0
2017-Oct-01 19:00N 47°39' W 122°22'0 0.0
2017-Oct-01 18:30N 47°39' W 122°22'0 0.0
2017-Oct-01 18:00N 47°39' W 122°22'0 0.0
2017-Oct-01 17:31N 47°39' W 122°22'0 0.0
2017-Oct-01 17:00N 47°39' W 122°22'0 0.0
2017-Oct-01 16:31N 47°39' W 122°22'0 0.0
2017-Oct-01 16:00N 47°39' W 122°22'0 0.0
2017-Oct-01 15:30N 47°39' W 122°22'0 0.0
2017-Oct-01 15:01N 47°39' W 122°22'0 0.0
2017-Oct-01 14:31N 47°39' W 122°22'0 0.0
2017-Oct-01 14:01N 47°39' W 122°22'0 0.0
2017-Oct-01 13:31N 47°39' W 122°22'0 0.0
2017-Oct-01 13:01N 47°39' W 122°22'0 0.0
2017-Oct-01 12:31N 47°39' W 122°22'0 0.0
2017-Oct-01 12:01N 47°39' W 122°22'0 0.0
2017-Oct-01 11:30N 47°39' W 122°22'0 0.0
2017-Oct-01 11:01N 47°39' W 122°22'0 0.0
2017-Oct-01 10:30N 47°39' W 122°22'0 0.0
2017-Oct-01 10:01N 47°39' W 122°22'0 0.0
2017-Oct-01 09:31N 47°39' W 122°22'0 0.0
2017-Oct-01 09:01N 47°39' W 122°22'0 0.0
2017-Oct-01 08:31N 47°39' W 122°22'0 0.0
2017-Oct-01 08:01N 47°39' W 122°22'0 0.0
2017-Oct-01 07:30N 47°39' W 122°22'0 0.0
2017-Oct-01 07:01N 47°39' W 122°22'0 0.0
2017-Oct-01 06:31N 47°39' W 122°22'0 0.0
2017-Oct-01 06:01N 47°39' W 122°22'0 0.0
2017-Oct-01 05:31N 47°39' W 122°22'0 0.0
2017-Oct-01 05:01N 47°39' W 122°22'0 0.0
2017-Oct-01 04:30N 47°39' W 122°22'0 0.0
2017-Oct-01 04:01N 47°39' W 122°22'0 0.0
2017-Oct-01 03:31N 47°39' W 122°22'0 0.0
2017-Oct-01 03:01N 47°39' W 122°22'0 0.0
2017-Sep-30 02:01N 47°39' W 122°22'0 0.0
2017-Sep-30 01:31N 47°39' W 122°22'0 0.0
2017-Sep-30 01:01N 47°39' W 122°22'0 0.0
2017-Sep-30 00:31N 47°39' W 122°22'0 0.0
2017-Sep-30 00:01N 47°39' W 122°22'0 0.0
2017-Sep-29 23:30N 47°39' W 122°22'0 0.0
2017-Sep-29 23:00N 47°39' W 122°22'0 0.0
2017-Sep-29 22:31N 47°39' W 122°22'0 0.0
2017-Sep-29 22:01N 47°39' W 122°22'0 0.0
2017-Sep-29 21:31N 47°39' W 122°22'0 0.0
2017-Sep-29 21:01N 47°39' W 122°22'0 0.0
2017-Sep-29 20:31N 47°39' W 122°22'0 0.0
2017-Sep-29 20:01N 47°39' W 122°22'0 0.0
2017-Sep-29 19:30N 47°39' W 122°22'0 0.0
2017-Sep-29 19:01N 47°39' W 122°22'0 0.0
2017-Sep-29 18:31N 47°39' W 122°22'0 0.0
2017-Sep-29 18:01N 47°39' W 122°22'0 0.0
2017-Sep-29 17:30N 47°39' W 122°22'0 0.0
2017-Sep-29 17:01N 47°39' W 122°22'0 0.0
2017-Sep-29 16:31N 47°39' W 122°22'0 0.0
2017-Sep-29 16:01N 47°39' W 122°22'0 0.0
2017-Sep-29 15:30N 47°39' W 122°22'0 0.0
2017-Sep-29 15:00N 47°39' W 122°22'0 0.0
2017-Sep-29 14:31N 47°39' W 122°22'0 0.0
2017-Sep-29 14:01N 47°39' W 122°22'0 0.0
2017-Sep-29 13:31N 47°39' W 122°22'0 0.0
2017-Sep-29 13:00N 47°39' W 122°22'0 0.0
2017-Sep-29 12:31N 47°39' W 122°22'0 0.0
2017-Sep-29 12:01N 47°39' W 122°22'0 0.0
2017-Sep-29 11:30N 47°39' W 122°22'0 0.0
2017-Sep-29 11:00N 47°39' W 122°22'0 0.0
2017-Sep-29 10:31N 47°39' W 122°22'0 0.0
2017-Sep-29 10:01N 47°39' W 122°22'0 0.0
2017-Sep-29 09:31N 47°39' W 122°22'0 0.0
2017-Sep-29 09:00N 47°39' W 122°22'0 0.0
2017-Sep-29 08:31N 47°39' W 122°22'0 0.0
2017-Sep-29 08:01N 47°39' W 122°22'0 0.0
2017-Sep-29 07:31N 47°39' W 122°22'0 0.0
2017-Sep-29 07:01N 47°39' W 122°22'0 0.0
2017-Sep-29 06:31N 47°39' W 122°22'0 0.0
2017-Sep-29 06:00N 47°39' W 122°22'0 0.0
2017-Sep-29 05:30N 47°39' W 122°22'0 0.0
2017-Sep-29 05:00N 47°39' W 122°22'0 0.0
2017-Sep-29 04:31N 47°39' W 122°22'0 0.0
2017-Sep-29 04:01N 47°39' W 122°22'0 0.0
2017-Sep-29 03:30N 47°39' W 122°22'0 0.0
2017-Sep-29 03:01N 47°39' W 122°22'0 0.0
2017-Sep-29 02:30N 47°39' W 122°22'0 0.0
2017-Sep-29 02:01N 47°39' W 122°22'0 0.0
2017-Sep-29 01:31N 47°39' W 122°22'0 0.0
2017-Sep-29 01:00N 47°39' W 122°22'0 0.0
2017-Sep-29 00:31N 47°39' W 122°22'0 0.0
2017-Sep-29 00:01N 47°39' W 122°22'0 0.0
2017-Sep-28 23:31N 47°39' W 122°22'0 0.0
2017-Sep-28 23:01N 47°39' W 122°22'0 0.0
2017-Sep-28 22:31N 47°39' W 122°22'0 0.0
2017-Sep-28 22:01N 47°39' W 122°22'0 0.0
2017-Sep-28 21:31N 47°39' W 122°22'0 0.0
2017-Sep-28 21:00N 47°39' W 122°22'0 0.0
2017-Sep-28 20:30N 47°39' W 122°22'0 0.0
2017-Sep-28 20:01N 47°39' W 122°22'0 0.0
2017-Sep-28 19:30N 47°39' W 122°22'0 0.0
2017-Sep-28 19:01N 47°39' W 122°22'0 0.0
2017-Sep-28 18:31N 47°39' W 122°22'0 0.0
2017-Sep-28 18:01N 47°39' W 122°22'0 0.0
2017-Sep-28 17:31N 47°39' W 122°22'0 0.0
2017-Sep-28 17:00N 47°39' W 122°22'0 0.0
2017-Sep-28 16:31N 47°39' W 122°22'0 0.0
2017-Sep-28 16:01N 47°39' W 122°22'0 0.0
2017-Sep-28 15:31N 47°39' W 122°22'0 0.0
2017-Sep-28 15:01N 47°39' W 122°22'0 0.0
2017-Sep-28 14:30N 47°39' W 122°22'0 0.0
2017-Sep-28 14:01N 47°39' W 122°22'0 0.0
2017-Sep-28 13:31N 47°39' W 122°22'0 0.0
2017-Sep-28 13:00N 47°39' W 122°22'0 0.0
2017-Sep-28 12:31N 47°39' W 122°22'0 0.0
2017-Sep-28 12:01N 47°39' W 122°22'0 0.0
2017-Sep-28 11:30N 47°39' W 122°22'0 0.0
2017-Sep-28 11:01N 47°39' W 122°22'0 0.0
2017-Sep-28 10:30N 47°39' W 122°22'0 0.0
2017-Sep-28 10:01N 47°39' W 122°22'0 0.0
2017-Sep-28 09:31N 47°39' W 122°22'0 0.0
2017-Sep-28 09:01N 47°39' W 122°22'0 0.0
2017-Sep-28 08:31N 47°39' W 122°22'0 0.0
2017-Sep-28 08:01N 47°39' W 122°22'0 0.0
2017-Sep-28 07:31N 47°39' W 122°22'0 0.0
2017-Sep-28 07:01N 47°39' W 122°22'0 0.0
2017-Sep-28 06:31N 47°39' W 122°22'0 0.0
2017-Sep-28 06:01N 47°39' W 122°22'0 0.0
2017-Sep-28 05:30N 47°39' W 122°22'0 0.0
2017-Sep-28 05:00N 47°39' W 122°22'0 0.0
2017-Sep-28 04:31N 47°39' W 122°22'0 0.0
2017-Sep-28 04:01N 47°39' W 122°22'0 0.0
2017-Sep-28 03:31N 47°39' W 122°22'0 0.0
2017-Sep-28 03:01N 47°39' W 122°22'0 0.0
2017-Sep-28 02:31N 47°39' W 122°22'0 0.0
2017-Sep-28 02:01N 47°39' W 122°22'0 0.0
2017-Sep-28 01:31N 47°39' W 122°22'0 0.0
2017-Sep-28 01:00N 47°39' W 122°22'0 0.0
2017-Sep-28 00:31N 47°39' W 122°22'0 0.0
2017-Sep-28 00:01N 47°39' W 122°22'0 0.0
2017-Sep-27 23:31N 47°39' W 122°22'0 0.0
2017-Sep-27 23:00N 47°39' W 122°22'0 0.0
2017-Sep-27 22:31N 47°39' W 122°22'0 0.0
2017-Sep-27 22:00N 47°39' W 122°22'0 0.0
2017-Sep-27 21:31N 47°39' W 122°22'0 0.0
2017-Sep-27 21:01N 47°39' W 122°22'0 0.0
2017-Sep-27 20:31N 47°39' W 122°22'0 0.0
2017-Sep-27 20:00N 47°39' W 122°22'0 0.0
2017-Sep-27 19:31N 47°39' W 122°22'0 0.0
2017-Sep-27 19:01N 47°39' W 122°22'0 0.0
2017-Sep-27 18:30N 47°39' W 122°22'0 0.0
2017-Sep-27 18:00N 47°39' W 122°22'0 0.0
2017-Sep-27 17:30N 47°39' W 122°22'0 0.0
2017-Sep-27 17:01N 47°39' W 122°22'0 0.0
2017-Sep-27 16:30N 47°39' W 122°22'0 0.0
2017-Sep-27 16:01N 47°39' W 122°22'0 0.0
2017-Sep-27 15:31N 47°39' W 122°22'0 0.0
2017-Sep-27 15:00N 47°39' W 122°22'0 0.0
2017-Sep-27 14:31N 47°39' W 122°22'0 0.0
2017-Sep-27 14:01N 47°39' W 122°22'0 0.0
2017-Sep-27 13:30N 47°39' W 122°22'0 0.0
2017-Sep-27 13:01N 47°39' W 122°22'0 0.0
2017-Sep-27 12:31N 47°39' W 122°22'0 0.0
2017-Sep-27 12:00N 47°39' W 122°22'0 0.0
2017-Sep-27 11:31N 47°39' W 122°22'0 0.0
2017-Sep-27 11:01N 47°39' W 122°22'0 0.0
2017-Sep-27 10:31N 47°39' W 122°22'0 0.0
2017-Sep-27 10:01N 47°39' W 122°22'0 0.0
2017-Sep-27 09:30N 47°39' W 122°22'0 0.0
2017-Sep-27 09:00N 47°39' W 122°22'0 0.0
2017-Sep-27 08:31N 47°39' W 122°22'0 0.0
2017-Sep-27 08:01N 47°39' W 122°22'0 0.0
2017-Sep-27 07:31N 47°39' W 122°22'0 0.0
2017-Sep-27 07:01N 47°39' W 122°22'0 0.0
2017-Sep-27 06:31N 47°39' W 122°22'0 0.0
2017-Sep-27 06:01N 47°39' W 122°22'0 0.0
2017-Sep-27 05:30N 47°39' W 122°22'0 0.0
2017-Sep-27 05:01N 47°39' W 122°22'0 0.0
2017-Sep-27 04:30N 47°39' W 122°22'0 0.0
2017-Sep-27 04:01N 47°39' W 122°22'0 0.0
2017-Sep-27 03:30N 47°39' W 122°22'0 0.0
2017-Sep-27 03:00N 47°39' W 122°22'0 0.0
2017-Sep-27 02:30N 47°39' W 122°22'0 0.0
2017-Sep-27 02:00N 47°39' W 122°22'0 0.0
2017-Sep-27 01:31N 47°39' W 122°22'0 0.0
2017-Sep-27 01:00N 47°39' W 122°22'0 0.0
2017-Sep-27 00:31N 47°39' W 122°22'0 0.0
2017-Sep-27 00:01N 47°39' W 122°22'0 0.0
2017-Sep-26 23:30N 47°39' W 122°22'0 0.0
2017-Sep-26 23:00N 47°39' W 122°22'0 0.0
2017-Sep-26 22:30N 47°39' W 122°22'0 0.0
2017-Sep-26 22:01N 47°39' W 122°22'0 0.0
2017-Sep-26 21:30N 47°39' W 122°22'0 0.0
2017-Sep-26 21:00N 47°39' W 122°22'0 0.0
2017-Sep-26 20:30N 47°39' W 122°22'0 0.0
2017-Sep-26 20:00N 47°39' W 122°22'0 0.0
2017-Sep-26 19:29N 47°39' W 122°22'0 0.0
2017-Sep-26 19:00N 47°39' W 122°22'0 0.0
2017-Sep-26 18:30N 47°39' W 122°22'0 0.0
2017-Sep-26 17:59N 47°39' W 122°22'0 0.0
2017-Sep-26 17:30N 47°39' W 122°22'0 0.0
2017-Sep-26 17:01N 47°39' W 122°22'0 0.0
2017-Sep-26 16:30N 47°39' W 122°22'0 0.0
2017-Sep-26 16:00N 47°39' W 122°22'0 0.0
2017-Sep-26 15:30N 47°39' W 122°22'0 0.0
2017-Sep-26 15:00N 47°39' W 122°22'0 0.0
2017-Sep-26 14:30N 47°39' W 122°22'0 0.0
2017-Sep-26 14:00N 47°39' W 122°22'0 0.0
2017-Sep-26 13:30N 47°39' W 122°22'0 0.0
2017-Sep-26 13:00N 47°39' W 122°22'0 0.0
2017-Sep-26 12:30N 47°39' W 122°22'0 0.0
2017-Sep-26 12:01N 47°39' W 122°22'0 0.0
2017-Sep-26 11:30N 47°39' W 122°22'0 0.0
2017-Sep-26 11:01N 47°39' W 122°22'0 0.0
2017-Sep-26 10:30N 47°39' W 122°22'0 0.0
2017-Sep-26 10:01N 47°39' W 122°22'0 0.0
2017-Sep-26 09:30N 47°39' W 122°22'0 0.0
2017-Sep-26 09:00N 47°39' W 122°22'0 0.0
2017-Sep-26 08:30N 47°39' W 122°22'0 0.0
2017-Sep-26 08:00N 47°39' W 122°22'0 0.0
2017-Sep-26 07:30N 47°39' W 122°22'0 0.0
2017-Sep-26 07:00N 47°39' W 122°22'0 0.0
2017-Sep-26 06:30N 47°39' W 122°22'0 0.0
2017-Sep-26 06:01N 47°39' W 122°22'0 0.0
2017-Sep-26 05:31N 47°39' W 122°22'0 0.0
2017-Sep-26 05:00N 47°39' W 122°22'0 0.0
2017-Sep-26 04:31N 47°39' W 122°22'0 0.0
2017-Sep-26 04:00N 47°39' W 122°22'0 0.0
2017-Sep-26 03:31N 47°39' W 122°22'0 0.0
2017-Sep-26 03:00N 47°39' W 122°22'0 0.0
2017-Sep-26 02:30N 47°39' W 122°22'0 0.0
2017-Sep-26 02:00N 47°39' W 122°22'0 0.0
2017-Sep-26 01:31N 47°39' W 122°22'0 0.0
2017-Sep-26 01:00N 47°39' W 122°22'0 0.0
2017-Sep-26 00:31N 47°39' W 122°22'0 0.0
2017-Sep-26 00:00N 47°39' W 122°22'0 0.0
2017-Sep-25 23:30N 47°39' W 122°22'0 0.0
2017-Sep-25 23:01N 47°39' W 122°22'0 0.0
2017-Sep-25 22:31N 47°39' W 122°22'0 0.0
2017-Sep-25 22:00N 47°39' W 122°22'0 0.0
2017-Sep-25 21:30N 47°39' W 122°22'0 0.0
2017-Sep-25 21:00N 47°39' W 122°22'0 0.0
2017-Sep-25 20:31N 47°39' W 122°22'0 0.0
2017-Sep-25 20:01N 47°39' W 122°22'0 0.0
2017-Sep-25 19:30N 47°39' W 122°22'0 0.0
2017-Sep-25 19:01N 47°39' W 122°22'0 0.0
2017-Sep-25 18:30N 47°39' W 122°22'0 0.0
2017-Sep-25 18:00N 47°39' W 122°22'0 0.0
2017-Sep-25 17:30N 47°39' W 122°22'0 0.0
2017-Sep-25 17:00N 47°39' W 122°22'0 0.0
2017-Sep-25 16:30N 47°39' W 122°22'0 0.0
2017-Sep-25 16:00N 47°39' W 122°22'0 0.0
2017-Sep-25 15:30N 47°39' W 122°22'0 0.0
2017-Sep-25 15:00N 47°39' W 122°22'0 0.0
2017-Sep-25 14:30N 47°39' W 122°22'0 0.0
2017-Sep-25 14:00N 47°39' W 122°22'0 0.0
2017-Sep-25 13:31N 47°39' W 122°22'0 0.0
2017-Sep-25 13:01N 47°39' W 122°22'0 0.0
2017-Sep-25 12:31N 47°39' W 122°22'0 0.0
2017-Sep-25 12:00N 47°39' W 122°22'0 0.0
2017-Sep-25 11:31N 47°39' W 122°22'0 0.0
2017-Sep-25 11:00N 47°39' W 122°22'0 0.0
2017-Sep-25 10:31N 47°39' W 122°22'0 0.0
2017-Sep-25 10:00N 47°39' W 122°22'0 0.0
2017-Sep-25 09:30N 47°39' W 122°22'0 0.0
2017-Sep-25 09:01N 47°39' W 122°22'0 0.0
2017-Sep-25 08:31N 47°39' W 122°22'0 0.0
2017-Sep-25 08:00N 47°39' W 122°22'0 0.0
2017-Sep-25 07:31N 47°39' W 122°22'0 0.0
2017-Sep-25 07:01N 47°39' W 122°22'0 0.0
2017-Sep-25 06:31N 47°39' W 122°22'0 0.0
2017-Sep-25 06:00N 47°39' W 122°22'0 0.0
2017-Sep-25 05:31N 47°39' W 122°22'0 0.0
2017-Sep-25 05:01N 47°39' W 122°22'0 0.0
2017-Sep-25 04:31N 47°39' W 122°22'0 0.0
2017-Sep-25 04:01N 47°39' W 122°22'0 0.0
2017-Sep-25 03:30N 47°39' W 122°22'0 0.0
2017-Sep-25 03:01N 47°39' W 122°22'0 0.0
2017-Sep-25 02:31N 47°39' W 122°22'0 0.0
2017-Sep-25 02:01N 47°39' W 122°22'0 0.0
2017-Sep-25 01:31N 47°39' W 122°22'0 0.0
2017-Sep-25 01:00N 47°39' W 122°22'0 0.0
2017-Sep-25 00:30N 47°39' W 122°22'0 0.0
2017-Sep-25 00:00N 47°39' W 122°22'0 0.0
2017-Sep-24 23:30N 47°39' W 122°22'0 0.0
2017-Sep-24 23:01N 47°39' W 122°22'0 0.0
2017-Sep-24 22:30N 47°39' W 122°22'0 0.0
2017-Sep-24 22:00N 47°39' W 122°22'0 0.0
2017-Sep-24 21:31N 47°39' W 122°22'0 0.0
2017-Sep-24 21:01N 47°39' W 122°22'0 0.0
2017-Sep-24 20:30N 47°39' W 122°22'0 0.0
2017-Sep-24 20:00N 47°39' W 122°22'0 0.0
2017-Sep-24 19:30N 47°39' W 122°22'0 0.0
2017-Sep-24 19:00N 47°39' W 122°22'0 0.0
2017-Sep-24 18:31N 47°39' W 122°22'0 0.0
2017-Sep-24 18:01N 47°39' W 122°22'0 0.0
2017-Sep-24 17:31N 47°39' W 122°22'0 0.0
2017-Sep-24 17:00N 47°39' W 122°22'0 0.0
2017-Sep-24 16:31N 47°39' W 122°22'0 0.0
2017-Sep-24 16:01N 47°39' W 122°22'0 0.0
2017-Sep-24 15:30N 47°39' W 122°22'0 0.0
2017-Sep-24 15:00N 47°39' W 122°22'0 0.0
2017-Sep-24 14:31N 47°39' W 122°22'0 0.0
2017-Sep-24 14:01N 47°39' W 122°22'0 0.0
2017-Sep-24 13:31N 47°39' W 122°22'0 0.0
2017-Sep-24 13:01N 47°39' W 122°22'0 0.0
2017-Sep-24 12:31N 47°39' W 122°22'0 0.0
2017-Sep-24 12:00N 47°39' W 122°22'0 0.0
2017-Sep-24 11:30N 47°39' W 122°22'0 0.0
2017-Sep-24 11:01N 47°39' W 122°22'0 0.0
2017-Sep-24 10:30N 47°39' W 122°22'0 0.0
2017-Sep-24 10:01N 47°39' W 122°22'0 0.0
2017-Sep-24 09:30N 47°39' W 122°22'0 0.0
2017-Sep-24 09:00N 47°39' W 122°22'0 0.0
2017-Sep-24 08:31N 47°39' W 122°22'0 0.0
2017-Sep-24 08:01N 47°39' W 122°22'0 0.0
2017-Sep-24 07:31N 47°39' W 122°22'0 0.0
2017-Sep-24 07:00N 47°39' W 122°22'0 0.0
2017-Sep-24 06:31N 47°39' W 122°22'0 0.0
2017-Sep-24 06:00N 47°39' W 122°22'0 0.0
2017-Sep-24 05:31N 47°39' W 122°22'0 0.0
2017-Sep-24 05:00N 47°39' W 122°22'  

Dump ship's entire track history